ADDS METAR Data

Data at: 1834 UTC 20 Jul 2018

METAR for:K1P1 (Plymouth Muni, NH, US)
Text:K1P1 201815Z AUTO 09005KT 10SM CLR 29/12 A3014 RMK AO2 T02880118
Temperature: 28.8°C ( 84°F)
Dewpoint: 11.8°C ( 53°F) [RH = 35%]
Pressure (altimeter):30.14 inches Hg (1020.7 mb)
Winds:from the E (90 degrees) at 6 MPH (5 knots; 2.6 m/s)
Visibility:10 or more sm (16+ km)
Ceiling:at least 12,000 feet AGL
Clouds:sky clear below 12,000 feet AGL
QC Flag:automated observation with no human augmentation